Time;durP1;ratioP1;P1;durP2;ratioP2;P2;SDS_P1;SDS_P2;PMS_P1;PMS_P2;Temp;Humidity;BMP_temperature;BMP_pressure;BME280_temperature;BME280_humidity;BME280_pressure;Samples;Min_cycle;Max_cycle;Signal;HPM_P1;HPM_P2
2023/04/01 00:03:55;;;;;;;8.10;7.30;;;;;;;12.17;88.32;98575.78;5106616;28;20261;-50
2023/04/01 00:06:28;;;;;;;7.00;6.40;;;;;;;12.12;88.83;98556.09;5107069;28;20229;-50
2023/04/01 00:09:06;;;;;;;8.53;7.13;;;;;;;12.09;89.29;98545.84;5110185;28;20243;-52
2023/04/01 00:12:17;;;;;;;;;;;;;;;;;;;;;
2023/04/01 00:14:45;;;;;;;7.43;6.73;;;;;;;11.87;91.79;98566.88;5104633;28;20206;-51
2023/04/01 00:17:18;;;;;;;8.20;7.30;;;;;;;11.86;92.01;98562.59;5110234;28;20258;-52
2023/04/01 00:19:48;;;;;;;8.70;7.20;;;;;;;11.78;93.11;98555.16;5110474;28;20259;-51
2023/04/01 00:22:15;;;;;;;8.37;6.13;;;;;;;11.79;92.57;98550.81;5110420;28;20206;-51
2023/04/01 00:24:46;;;;;;;14.40;7.27;;;;;;;11.92;92.00;98564.91;5110029;28;20662;-49
2023/04/01 00:27:57;;;;;;;8.97;7.33;;;;;;;11.98;91.46;98578.44;5110008;28;20199;-51
2023/04/01 00:30:47;;;;;;;8.13;6.93;;;;;;;11.99;90.74;98561.91;5109616;28;20194;-50
2023/04/01 00:37:06;;;;;;;11.60;6.77;;;;;;;12.05;90.67;98563.38;5108912;28;20199;-51
2023/04/01 00:45:50;;;;;;;10.03;8.67;;;;;;;11.96;90.34;98561.25;5108596;28;20230;-51
2023/04/01 00:48:48;;;;;;;13.43;9.30;;;;;;;11.96;91.27;98559.44;5108718;28;20199;-51
2023/04/01 00:51:56;;;;;;;13.13;9.60;;;;;;;12.01;91.45;98559.25;5109524;28;20205;-50
2023/04/01 00:54:43;;;;;;;15.73;9.97;;;;;;;11.94;93.22;98568.28;5108813;28;20318;-49
2023/04/01 01:01:05;;;;;;;;;;;;;;;;;;;;;
2023/04/01 01:03:59;;;;;;;10.80;9.57;;;;;;;12.00;91.50;98555.78;5109668;28;20202;-50
2023/04/01 01:10:09;;;;;;;14.30;10.20;;;;;;;12.09;89.67;98536.28;5108162;28;20206;-53
2023/04/01 01:16:12;;;;;;;11.10;9.27;;;;;;;12.07;90.29;98556.34;5109937;28;20324;-50
2023/04/01 01:19:09;;;;;;;10.03;8.00;;;;;;;12.10;89.64;98558.78;5109507;28;20226;-51
2023/04/01 01:26:16;;;;;;;;;;;;;;;;;;;;;
2023/04/01 01:29:46;;;;;;;;;;;;;;;;;;;;;
2023/04/01 01:39:14;;;;;;;11.03;9.77;;;;;;;11.88;90.18;98537.34;5107300;28;20265;-49
2023/04/01 01:45:17;;;;;;;15.60;9.47;;;;;;;11.79;91.06;98535.22;5109051;28;20760;-51
2023/04/01 01:51:55;;;;;;;11.73;9.90;;;;;;;11.95;89.64;98523.16;5106763;28;20323;-51
2023/04/01 01:54:45;;;;;;;13.57;8.70;;;;;;;11.97;89.72;98519.53;5107644;28;20226;-51
2023/04/01 01:57:44;;;;;;;9.20;7.07;;;;;;;11.93;90.23;98511.97;5109090;28;20219;-51
2023/04/01 02:00:44;;;;;;;7.90;6.90;;;;;;;11.86;91.12;98508.00;5108878;28;20194;-51
2023/04/01 02:03:46;;;;;;;8.27;6.80;;;;;;;11.92;90.88;98502.50;5112688;28;20202;-50
2023/04/01 02:06:54;;;;;;;9.70;6.37;;;;;;;11.99;90.38;98509.06;5112694;28;20194;-50
2023/04/01 02:12:56;;;;;;;7.77;6.97;;;;;;;11.74;92.25;98500.78;5111046;28;20194;-49
2023/04/01 02:15:46;;;;;;;9.67;6.00;;;;;;;11.61;93.60;98506.59;5112290;28;20590;-50
2023/04/01 02:18:46;;;;;;;9.80;7.07;;;;;;;11.51;94.57;98507.94;5112346;28;20230;-51
2023/04/01 02:21:45;;;;;;;9.17;6.57;;;;;;;11.50;94.66;98511.47;5111903;28;20255;-51
2023/04/01 02:24:42;;;;;;;8.97;6.73;;;;;;;11.45;94.97;98516.03;5112149;28;20255;-51
2023/04/01 02:27:39;;;;;;;9.03;6.83;;;;;;;11.48;94.54;98534.09;5110612;28;20202;-51
2023/04/01 02:30:44;;;;;;;9.57;6.63;;;;;;;11.54;94.02;98531.19;5111531;28;20194;-51
2023/04/01 02:33:34;;;;;;;8.40;6.63;;;;;;;11.57;93.74;98518.03;5112222;28;20197;-49
2023/04/01 02:36:45;;;;;;;9.43;7.00;;;;;;;11.54;94.06;98500.00;5111945;28;20281;-50
2023/04/01 02:39:38;;;;;;;10.20;7.10;;;;;;;11.55;93.65;98496.47;5112075;28;20283;-50
2023/04/01 02:48:45;;;;;;;12.23;7.43;;;;;;;11.39;94.69;98499.91;5111500;28;20218;-51
2023/04/01 02:52:07;;;;;;;8.07;6.83;;;;;;;11.28;96.56;98508.22;5111762;28;20197;-51
2023/04/01 03:00:54;;;;;;;9.97;8.50;;;;;;;11.36;96.36;98487.06;5109383;28;20678;-50
2023/04/01 03:03:45;;;;;;;11.37;8.67;;;;;;;11.34;96.65;98494.94;5111559;28;20202;-51
2023/04/01 03:06:55;;;;;;;16.57;10.07;;;;;;;11.33;95.61;98495.84;5111772;28;20198;-51
2023/04/01 03:09:45;;;;;;;25.70;19.23;;;;;;;11.14;96.46;98490.69;5109239;28;20198;-52
2023/04/01 03:12:54;;;;;;;32.07;22.63;;;;;;;10.98;97.10;98497.50;5111381;28;20226;-50
2023/04/01 03:16:01;;;;;;;31.60;24.13;;;;;;;10.76;98.37;98500.25;5111467;28;20237;-48
2023/04/01 03:18:50;;;;;;;26.30;16.87;;;;;;;10.55;99.74;98506.41;5110728;28;20264;-49
2023/04/01 03:21:45;;;;;;;20.00;15.70;;;;;;;10.29;100.00;98494.59;5111264;28;20191;-51
2023/04/01 03:24:41;;;;;;;;;;;;;;;;;;;;;
2023/04/01 03:30:33;;;;;;;19.70;12.27;;;;;;;10.31;100.00;98473.78;5110715;28;20198;-49
2023/04/01 03:36:00;;;;;;;21.83;12.27;;;;;;;9.96;100.00;98496.84;5108463;28;20700;-51
2023/04/01 03:39:23;;;;;;;28.13;13.37;;;;;;;9.81;100.00;98475.06;5110817;28;20222;-51
2023/04/01 03:45:16;;;;;;;20.50;11.90;;;;;;;9.87;100.00;98462.72;5110811;28;20206;-49
2023/04/01 03:48:11;;;;;;;14.97;11.53;;;;;;;9.87;100.00;98462.72;5110940;28;20214;-50
2023/04/01 03:54:49;;;;;;;17.60;12.00;;;;;;;9.90;100.00;98473.81;5107592;28;20202;-50
2023/04/01 03:58:01;;;;;;;15.17;11.53;;;;;;;9.80;100.00;98459.56;5068285;28;20188;-49
2023/04/01 04:07:50;;;;;;;18.10;12.60;;;;;;;9.64;100.00;98456.75;5148289;27;20204;-51
2023/04/01 04:14:13;;;;;;;17.83;11.50;;;;;;;9.63;100.00;98457.66;5144996;27;20523;-50
2023/04/01 04:17:16;;;;;;;;;;;;;;;;;;;;;
2023/04/01 04:19:54;;;;;;;17.20;11.90;;;;;;;10.02;100.00;98447.38;5146775;27;20201;-50
2023/04/01 04:23:02;;;;;;;13.83;10.17;;;;;;;10.06;100.00;98459.25;5147416;27;20243;-49
2023/04/01 04:25:43;;;;;;;17.13;10.43;;;;;;;10.18;100.00;98458.75;5148259;27;20205;-50
2023/04/01 04:34:07;;;;;;;14.70;10.13;;;;;;;10.54;100.00;98460.63;5145819;27;20189;-51
2023/04/01 04:36:50;;;;;;;15.17;10.13;;;;;;;10.66;100.00;98459.22;5126498;28;20284;-51
2023/04/01 04:39:44;;;;;;;12.53;9.13;;;;;;;10.76;99.64;98444.91;5126449;28;20194;-51
2023/04/01 04:45:20;;;;;;;13.90;8.90;;;;;;;10.85;99.78;98467.84;5124046;28;20267;-52
2023/04/01 04:48:04;;;;;;;11.17;8.37;;;;;;;11.01;98.14;98460.19;5126841;28;20197;-52
2023/04/01 04:50:34;;;;;;;12.13;7.93;;;;;;;11.03;98.49;98471.34;5127054;28;20194;-51
2023/04/01 04:53:28;;;;;;;9.23;8.23;;;;;;;11.06;98.04;98464.22;5126483;28;20289;-52
2023/04/01 04:56:06;;;;;;;11.37;7.27;;;;;;;11.14;97.08;98466.47;5126648;28;20190;-50
2023/04/01 04:59:19;;;;;;;7.57;6.77;;;;;;;11.10;98.27;98470.13;5134068;27;20640;-51
2023/04/01 05:05:04;;;;;;;9.17;7.50;;;;;;;11.25;98.12;98465.06;5135156;27;20214;-50
2023/04/01 05:07:49;;;;;;;8.50;7.27;;;;;;;11.28;97.02;98461.47;5139556;27;20220;-49
2023/04/01 05:10:35;;;;;;;9.07;7.50;;;;;;;11.36;96.87;98464.53;5145670;27;20240;-50
2023/04/01 05:13:15;;;;;;;12.33;7.17;;;;;;;11.53;96.18;98464.53;5141344;27;20537;-51
2023/04/01 05:15:48;;;;;;;15.20;8.43;;;;;;;11.69;93.89;98468.97;5132160;27;20244;-52
2023/04/01 05:18:21;;;;;;;13.23;9.23;;;;;;;11.69;93.13;98445.59;5119962;27;20217;-49
2023/04/01 05:20:57;;;;;;;35.93;21.23;;;;;;;11.81;92.45;98456.25;5122911;27;20460;-48
2023/04/01 05:23:30;;;;;;;40.33;21.90;;;;;;;11.82;92.41;98444.09;5130322;27;20347;-49
2023/04/01 05:25:59;;;;;;;39.80;14.37;;;;;;;11.86;92.52;98451.63;5128859;27;20317;-50
2023/04/01 05:28:38;;;;;;;34.30;15.67;;;;;;;11.74;94.06;98451.41;5128222;27;20205;-51
2023/04/01 05:31:11;;;;;;;20.97;14.20;;;;;;;11.89;93.12;98442.84;5130233;27;20200;-51
2023/04/01 05:33:54;;;;;;;35.67;14.97;;;;;;;11.80;92.49;98445.91;5130092;27;20193;-51
2023/04/01 05:36:44;;;;;;;25.97;15.30;;;;;;;11.79;92.13;98454.63;5130269;27;20596;-51
2023/04/01 05:39:15;;;;;;;26.53;13.77;;;;;;;11.78;91.76;98443.38;5132008;27;20755;-52
2023/04/01 05:41:50;;;;;;;23.83;13.50;;;;;;;11.59;92.39;98427.03;5129885;27;20194;-52
2023/04/01 05:44:44;;;;;;;20.83;12.63;;;;;;;11.57;92.95;98421.06;5130630;27;20668;-52
2023/04/01 05:47:14;;;;;;;22.77;13.73;;;;;;;11.56;92.67;98415.00;5132443;27;20197;-51
2023/04/01 05:50:05;;;;;;;27.03;15.30;;;;;;;11.51;93.40;98411.78;5130868;27;20285;-52
2023/04/01 05:52:45;;;;;;;29.43;18.87;;;;;;;11.40;94.91;98401.09;5127105;27;20433;-53
2023/04/01 05:55:30;;;;;;;31.33;20.43;;;;;;;11.39;95.27;98383.00;5130921;27;20216;-50
2023/04/01 05:58:03;;;;;;;32.83;22.30;;;;;;;11.45;95.15;98398.28;5129586;27;20194;-50
2023/04/01 06:00:41;;;;;;;34.30;21.60;;;;;;;11.47;94.97;98399.88;5131614;27;20225;-49
2023/04/01 06:03:33;;;;;;;35.23;21.80;;;;;;;11.25;96.72;98366.34;5130620;27;20639;-51
2023/04/01 06:06:19;;;;;;;33.13;20.43;;;;;;;11.14;98.01;98388.56;5131407;27;20201;-50
2023/04/01 06:08:53;;;;;;;37.43;20.33;;;;;;;11.21;98.45;98376.97;5112681;27;20666;-51
2023/04/01 06:11:47;;;;;;;26.23;16.17;;;;;;;11.24;97.94;98397.59;5107969;28;20217;-51
2023/04/01 06:14:39;;;;;;;26.83;16.40;;;;;;;11.09;99.73;98380.16;5116390;27;20218;-52
2023/04/01 06:17:58;;;;;;;28.33;15.80;;;;;;;11.15;99.53;98335.72;5120374;27;20240;-52
2023/04/01 06:21:09;;;;;;;20.03;10.83;;;;;;;11.39;98.18;98357.03;5129921;27;20547;-51
2023/04/01 06:27:25;;;;;;;15.23;10.13;;;;;;;11.51;97.99;98357.22;5129860;27;20646;-52
2023/04/01 06:30:37;;;;;;;10.63;8.97;;;;;;;11.59;97.15;98352.50;5130946;27;20234;-53
2023/04/01 06:33:48;;;;;;;16.20;9.13;;;;;;;11.48;98.86;98367.78;5131077;27;20186;-51
2023/04/01 06:36:48;;;;;;;14.60;8.70;;;;;;;11.60;98.39;98364.56;5130576;27;20194;-53
2023/04/01 06:39:34;;;;;;;15.37;10.73;;;;;;;11.60;98.20;98361.13;5127873;27;20186;-51
2023/04/01 06:42:35;;;;;;;17.63;9.13;;;;;;;11.72;97.43;98359.66;5129189;27;20193;-52
2023/04/01 06:45:34;;;;;;;13.17;8.47;;;;;;;11.79;97.11;98361.03;5115045;27;20587;-51
2023/04/01 06:48:31;;;;;;;8.90;7.80;;;;;;;11.74;97.62;98361.25;5128706;27;20657;-52
2023/04/01 06:51:20;;;;;;;10.97;7.20;;;;;;;11.85;97.08;98353.75;5126799;27;20350;-52
2023/04/01 06:54:02;;;;;;;13.40;8.77;;;;;;;12.12;96.13;98355.81;5124350;27;20724;-52
2023/04/01 06:56:42;;;;;;;13.63;8.90;;;;;;;12.51;93.23;98365.84;5128230;27;20230;-52
2023/04/01 06:59:37;;;;;;;12.67;7.83;;;;;;;12.78;89.96;98369.50;5128382;27;20214;-51
2023/04/01 07:02:28;;;;;;;13.40;7.50;;;;;;;13.14;87.50;98365.75;5126405;27;20281;-51
2023/04/01 07:05:12;;;;;;;11.17;7.90;;;;;;;13.18;86.70;98365.53;5128137;27;20296;-51
2023/04/01 07:07:48;;;;;;;13.03;8.03;;;;;;;13.22;86.58;98374.00;5126572;27;20213;-51
2023/04/01 07:10:30;;;;;;;29.70;16.30;;;;;;;13.27;86.37;98366.75;5128145;27;20270;-56
2023/04/01 07:13:09;;;;;;;19.90;12.07;;;;;;;13.41;85.70;98345.97;5125907;27;20202;-52
2023/04/01 07:15:48;;;;;;;18.83;9.50;;;;;;;13.55;84.50;98342.50;5128427;27;20201;-53
2023/04/01 07:18:32;;;;;;;15.30;8.63;;;;;;;13.74;83.64;98335.28;5128975;27;20246;-52
2023/04/01 07:21:20;;;;;;;9.03;8.07;;;;;;;13.96;82.41;98346.09;5127859;27;20190;-50
2023/04/01 07:24:35;;;;;;;7.87;6.97;;;;;;;14.08;80.64;98334.06;5129500;27;20525;-50
2023/04/01 07:27:42;;;;;;;8.33;7.23;;;;;;;14.24;79.77;98328.72;5130954;27;20285;-51
2023/04/01 07:33:54;;;;;;;8.63;7.40;;;;;;;14.06;81.96;98309.84;5127393;27;20210;-51
2023/04/01 07:36:53;;;;;;;15.83;8.13;;;;;;;14.20;81.30;98312.44;5130382;27;20209;-51
2023/04/01 07:40:01;;;;;;;16.37;7.20;;;;;;;14.26;79.88;98325.09;5130229;27;20630;-51
2023/04/01 07:43:04;;;;;;;8.20;6.17;;;;;;;14.09;81.52;98320.09;5129606;27;20736;-53
2023/04/01 07:45:43;;;;;;;7.77;6.97;;;;;;;14.08;82.07;98308.81;5120759;27;20228;-52
2023/04/01 07:48:37;;;;;;;10.43;6.57;;;;;;;14.25;80.88;98312.97;5107451;28;20222;-53
2023/04/01 07:51:29;;;;;;;8.47;6.60;;;;;;;14.19;81.04;98302.94;5106975;28;20255;-53
2023/04/01 07:54:20;;;;;;;10.20;6.87;;;;;;;14.45;79.63;98312.56;5121372;27;20218;-52
2023/04/01 07:57:21;;;;;;;17.57;7.70;;;;;;;14.74;77.99;98317.72;5126810;27;20194;-52
2023/04/01 08:03:24;;;;;;;11.43;7.87;;;;;;;14.93;75.84;98317.34;5126777;28;20274;-51
2023/04/01 08:09:50;;;;;;;12.83;7.63;;;;;;;14.55;78.19;98299.78;5129545;28;20202;-51
2023/04/01 08:12:45;;;;;;;8.97;7.47;;;;;;;14.34;79.51;98288.88;5126829;28;20677;-52
2023/04/01 08:15:50;;;;;;;9.93;8.47;;;;;;;14.25;80.02;98294.69;5128536;28;20291;-52
2023/04/01 08:18:41;;;;;;;9.90;8.03;;;;;;;14.09;81.59;98276.56;5129037;28;20192;-53
2023/04/01 08:24:30;;;;;;;15.77;7.30;;;;;;;13.94;83.75;98271.47;5124696;28;20221;-52
2023/04/01 08:27:25;;;;;;;10.80;7.53;;;;;;;13.82;84.69;98271.28;5128059;28;20194;-50
2023/04/01 08:30:21;;;;;;;11.50;8.03;;;;;;;13.82;85.22;98268.69;5129819;28;20613;-50
2023/04/01 08:36:09;;;;;;;13.80;8.07;;;;;;;13.86;85.47;98256.31;5127896;28;20208;-52
2023/04/01 08:39:09;;;;;;;14.90;7.93;;;;;;;13.72;86.43;98251.94;5130014;28;20213;-53
2023/04/01 08:42:34;;;;;;;9.57;7.53;;;;;;;13.77;86.35;98249.88;5129679;28;20198;-50
2023/04/01 08:45:51;;;;;;;9.37;8.30;;;;;;;13.95;85.40;98249.66;5113937;28;20301;-49
2023/04/01 08:55:57;;;;;;;14.00;7.40;;;;;;;14.46;80.71;98229.88;5110815;28;20226;-52
2023/04/01 08:59:07;;;;;;;11.30;7.77;;;;;;;14.58;79.37;98213.41;5121583;27;20780;-56
2023/04/01 09:16:12;;;;;;;12.60;7.10;;;;;;;14.73;77.50;98185.44;5132405;27;20217;-51
2023/04/01 09:19:30;;;;;;;9.83;7.27;;;;;;;14.57;79.25;98175.16;5132481;27;20321;-53
2023/04/01 09:22:37;;;;;;;13.13;7.90;;;;;;;14.51;79.54;98159.94;5132212;27;20308;-53
2023/04/01 09:26:00;;;;;;;13.37;7.60;;;;;;;14.50;79.76;98148.66;5132151;27;20236;-51
2023/04/01 09:29:10;;;;;;;11.10;7.70;;;;;;;14.60;79.95;98155.88;5130515;27;20282;-51
2023/04/01 09:42:36;;;;;;;12.97;8.53;;;;;;;14.95;78.31;98129.97;5131660;27;20250;-51
2023/04/01 09:55:50;;;;;;;11.47;8.67;;;;;;;15.12;77.74;98132.28;5124852;27;20732;-52
2023/04/01 10:05:38;;;;;;;12.30;9.87;;;;;;;15.50;73.96;98087.75;5129240;27;20225;-51
2023/04/01 10:08:51;;;;;;;14.93;9.97;;;;;;;15.75;72.56;98092.91;5128073;27;20630;-51
2023/04/01 10:11:51;;;;;;;14.80;9.97;;;;;;;15.63;73.05;98087.75;5130038;27;20217;-51
2023/04/01 10:15:19;;;;;;;17.27;10.40;;;;;;;16.03;71.58;98070.78;5126277;27;20580;-52
2023/04/01 10:18:23;;;;;;;13.53;9.23;;;;;;;16.28;69.98;98085.50;5094295;27;20259;-50
2023/04/01 10:21:31;;;;;;;14.83;9.23;;;;;;;16.45;68.92;98077.25;5130538;27;20304;-50
2023/04/01 10:24:32;;;;;;;16.37;9.57;;;;;;;16.70;67.23;98050.88;5128168;27;20278;-51
2023/04/01 10:27:27;;;;;;;15.90;10.03;;;;;;;16.93;66.15;98054.31;5130441;27;20755;-52
2023/04/01 10:30:28;;;;;;;17.47;11.07;;;;;;;16.81;66.20;98028.28;5117856;27;20757;-50
2023/04/01 10:33:36;;;;;;;18.20;9.30;;;;;;;16.81;66.06;98041.38;5130957;27;20292;-50
2023/04/01 10:36:53;;;;;;;16.23;9.17;;;;;;;16.82;66.27;98053.50;5130195;27;20584;-51
2023/04/01 10:40:01;;;;;;;17.47;9.80;;;;;;;16.73;66.28;98033.25;5130565;27;20213;-51
2023/04/01 10:43:10;;;;;;;16.20;9.13;;;;;;;16.78;66.48;98031.94;5131741;27;20216;-53
2023/04/01 10:46:15;;;;;;;13.43;9.00;;;;;;;16.93;66.00;98004.53;5126911;27;20626;-51
2023/04/01 10:49:21;;;;;;;16.23;10.93;;;;;;;17.09;65.08;97991.06;5128649;27;20202;-51
2023/04/01 10:52:22;;;;;;;12.37;9.43;;;;;;;17.18;64.65;97977.22;5129250;27;20665;-50
2023/04/01 10:55:17;;;;;;;15.10;9.67;;;;;;;17.16;65.06;97968.63;5131130;27;20677;-52
2023/04/01 10:58:17;;;;;;;16.60;10.40;;;;;;;17.18;64.71;97958.88;5130737;27;20190;-52
2023/04/01 11:01:26;;;;;;;15.30;10.50;;;;;;;17.32;64.42;97965.63;5127971;27;20218;-51
2023/04/01 11:04:34;;;;;;;20.97;10.70;;;;;;;17.50;63.80;97944.91;5127248;27;20225;-52
2023/04/01 11:08:04;;;;;;;16.03;10.50;;;;;;;17.82;62.75;97945.78;5111878;27;20572;-51
2023/04/01 11:11:23;;;;;;;11.30;7.83;;;;;;;18.11;61.14;97952.03;5128746;27;20205;-52
2023/04/01 11:14:45;;;;;;;9.80;8.13;;;;;;;18.31;60.46;97957.38;5110276;28;20199;-52
2023/04/01 11:17:46;;;;;;;13.85;8.75;;;;;;;18.58;59.43;97944.56;5109706;28;20194;-51
2023/04/01 11:21:00;;;;;;;11.55;8.15;;;;;;;18.74;58.70;97929.09;5109728;28;20205;-50
2023/04/01 11:24:07;;;;;;;9.05;7.53;;;;;;;18.64;58.90;97925.63;5125151;27;20197;-51
2023/04/01 11:27:04;;;;;;;7.55;6.82;;;;;;;18.79;58.71;97926.09;5127292;27;20229;-51
2023/04/01 11:30:19;;;;;;;12.63;8.05;;;;;;;18.65;58.70;97926.47;5127516;27;20197;-52
2023/04/01 11:33:05;;;;;;;11.15;8.30;;;;;;;18.69;58.71;97915.56;5129751;27;20193;-52
2023/04/01 11:36:02;;;;;;;11.23;9.10;;;;;;;18.62;58.99;97919.69;5130336;27;20189;-51
2023/04/01 11:39:03;;;;;;;12.95;8.57;;;;;;;19.00;58.33;97912.84;5130058;27;20628;-51
2023/04/01 11:41:44;;;;;;;18.85;9.20;;;;;;;19.37;57.18;97895.44;5127257;27;20185;-52
2023/04/01 11:44:52;;;;;;;9.35;8.30;;;;;;;19.68;55.99;97888.25;5127116;27;20594;-51
2023/04/01 11:48:17;;;;;;;9.07;8.02;;;;;;;19.85;54.96;97881.44;5126465;27;20190;-53
2023/04/01 11:51:36;;;;;;;10.93;8.02;;;;;;;19.81;55.20;97870.38;5047053;28;20201;-55
2023/04/01 11:54:40;;;;;;;12.65;8.07;;;;;;;19.43;55.67;97863.31;5130332;27;20194;-52
2023/04/01 11:58:04;;;;;;;9.23;6.80;;;;;;;19.26;57.17;97882.44;5130125;27;20209;-50
2023/04/01 12:01:15;;;;;;;12.70;6.93;;;;;;;19.50;57.07;97875.00;5130373;27;20281;-54
2023/04/01 12:04:28;;;;;;;10.10;7.93;;;;;;;19.54;56.78;97871.09;5127516;28;20217;-51
2023/04/01 12:07:24;;;;;;;12.15;6.78;;;;;;;19.50;56.86;97867.09;5095809;28;20277;-51
2023/04/01 12:10:21;;;;;;;7.45;6.70;;;;;;;19.56;56.55;97861.25;5130200;28;20645;-51
2023/04/01 12:13:19;;;;;;;7.40;6.60;;;;;;;19.50;56.71;97859.19;5129675;28;20669;-51
2023/04/01 12:16:32;;;;;;;10.02;6.97;;;;;;;19.42;57.21;97866.91;5130118;28;20288;-49
2023/04/01 12:19:32;;;;;;;12.20;7.57;;;;;;;19.49;57.37;97854.91;5130150;28;20198;-51
2023/04/01 12:22:28;;;;;;;10.55;6.80;;;;;;;19.49;57.45;97828.59;5129331;28;20200;-52
2023/04/01 12:25:19;;;;;;;9.32;6.90;;;;;;;19.48;57.96;97824.28;5132764;27;20290;-51
2023/04/01 12:28:09;;;;;;;11.48;7.03;;;;;;;19.61;57.63;97802.13;5133782;27;20252;-52
2023/04/01 12:31:07;;;;;;;14.00;7.28;;;;;;;19.79;57.16;97797.75;5134101;27;20694;-50
2023/04/01 12:33:59;;;;;;;8.90;7.07;;;;;;;19.91;56.42;97799.25;5134151;27;20200;-50
2023/04/01 12:37:08;;;;;;;8.43;7.57;;;;;;;19.79;56.19;97793.31;5134235;27;20190;-51
2023/04/01 12:46:58;;;;;;;8.52;7.05;;;;;;;19.81;56.53;97777.38;5132592;27;20708;-52
2023/04/01 12:50:13;;;;;;;12.50;7.07;;;;;;;19.95;56.55;97769.03;5133598;27;20277;-52
2023/04/01 12:53:24;;;;;;;10.40;7.63;;;;;;;20.06;56.09;97774.09;5109511;27;20284;-50
2023/04/01 12:56:25;;;;;;;7.75;6.80;;;;;;;20.11;56.02;97773.66;5133427;27;20238;-51
2023/04/01 12:59:56;;;;;;;9.23;6.63;;;;;;;20.18;55.88;97769.47;5133667;27;20237;-52
2023/04/01 13:03:17;;;;;;;9.50;6.53;;;;;;;20.10;56.20;97762.28;5133490;27;20197;-51
2023/04/01 13:06:41;;;;;;;13.93;6.43;;;;;;;19.96;56.52;97762.78;5091568;28;20255;-52
2023/04/01 13:09:40;;;;;;;11.23;7.43;;;;;;;20.00;56.62;97763.31;5091943;28;20201;-52
2023/04/01 13:12:40;;;;;;;7.95;6.45;;;;;;;19.96;56.29;97740.91;5091510;28;20188;-53
2023/04/01 13:15:39;;;;;;;12.93;7.25;;;;;;;19.70;56.61;97727.56;5090557;28;20194;-52
2023/04/01 13:18:24;;;;;;;9.05;6.70;;;;;;;19.56;57.06;97745.47;5090282;28;20278;-50
2023/04/01 13:21:07;;;;;;;8.25;7.20;;;;;;;19.57;56.99;97752.38;5091931;28;20206;-51
2023/04/01 13:23:56;;;;;;;10.43;6.95;;;;;;;19.66;56.14;97752.50;5091571;28;20703;-53
2023/04/01 13:26:32;;;;;;;11.48;7.78;;;;;;;19.67;55.34;97748.88;5089313;28;20215;-53
2023/04/01 13:29:43;;;;;;;10.40;8.18;;;;;;;19.67;55.20;97764.69;5089437;28;20205;-52
2023/04/01 13:32:34;;;;;;;20.00;9.48;;;;;;;19.44;55.47;97799.19;5090397;28;20202;-51
2023/04/01 13:35:33;;;;;;;26.98;8.48;;;;;;;19.05;56.50;97865.97;5088882;28;20184;-52
2023/04/01 13:38:31;;;;;;;28.75;10.48;;;;;;;18.71;56.72;97889.97;5087567;28;20219;-51
2023/04/01 13:41:16;;;;;;;20.73;10.15;;;;;;;18.40;58.55;97891.75;5090376;28;20226;-52
2023/04/01 13:43:54;;;;;;;26.70;10.32;;;;;;;18.03;58.87;97895.91;5089335;28;20573;-51
2023/04/01 13:46:50;;;;;;;19.55;11.15;;;;;;;17.87;60.95;97901.59;5091364;28;20242;-52
2023/04/01 13:50:09;;;;;;;28.45;11.90;;;;;;;17.50;61.92;97871.47;5089237;28;20215;-51
2023/04/01 13:53:12;;;;;;;14.60;11.00;;;;;;;17.54;63.31;97939.31;5084428;28;20219;-51
2023/04/01 13:56:11;;;;;;;21.53;10.23;;;;;;;17.35;64.70;97976.72;5087300;28;20694;-53
2023/04/01 13:59:28;;;;;;;15.83;10.30;;;;;;;17.24;65.51;97973.28;5087992;28;20215;-52
2023/04/01 14:02:14;;;;;;;18.03;9.20;;;;;;;17.08;65.99;97980.69;5073113;28;20612;-53
2023/04/01 14:05:17;;;;;;;21.43;9.03;;;;;;;16.87;67.97;97989.31;5126383;27;20236;-52
2023/04/01 14:08:08;;;;;;;8.70;4.40;;;;;;;16.55;71.83;97997.03;5130983;27;20186;-50
2023/04/01 14:11:13;;;;;;;12.13;6.53;;;;;;;16.51;76.18;98020.94;5128042;27;20577;-52
2023/04/01 14:14:19;;;;;;;10.93;7.60;;;;;;;16.47;78.41;98016.91;5131263;27;20564;-53
2023/04/01 14:17:29;;;;;;;18.23;13.53;;;;;;;16.54;79.61;98023.34;5128948;27;20233;-55
2023/04/01 14:20:37;;;;;;;12.77;9.10;;;;;;;16.44;79.84;98025.81;5128958;27;20186;-52
2023/04/01 14:23:56;;;;;;;6.90;5.17;;;;;;;16.42;79.57;98006.78;5110145;28;20697;-55
2023/04/01 14:27:12;;;;;;;11.63;4.70;;;;;;;16.59;77.86;98005.50;5110861;28;20223;-53
2023/04/01 14:30:14;;;;;;;15.83;11.97;;;;;;;16.86;74.73;97997.28;5111212;28;20587;-53
2023/04/01 14:33:25;;;;;;;10.40;5.00;;;;;;;16.89;73.67;97986.56;5110749;28;20642;-53
2023/04/01 14:36:46;;;;;;;11.93;7.80;;;;;;;16.82;74.08;97964.41;5110519;28;20222;-54
2023/04/01 14:40:08;;;;;;;5.60;4.97;;;;;;;16.55;75.41;97972.63;5117726;27;20683;-53
2023/04/01 14:43:13;;;;;;;6.80;6.13;;;;;;;16.54;76.03;97969.16;5130797;27;20190;-53
2023/04/01 14:46:29;;;;;;;7.97;5.70;;;;;;;16.42;76.15;97948.31;5130941;27;20611;-54
2023/04/01 14:53:11;;;;;;;11.00;6.73;;;;;;;16.54;76.57;97950.00;5126960;27;20194;-55
2023/04/01 14:56:06;;;;;;;6.90;5.97;;;;;;;16.55;77.71;97960.34;5125349;27;20230;-54
2023/04/01 14:59:06;;;;;;;6.60;5.67;;;;;;;16.49;80.12;97942.47;5127632;27;20194;-53
2023/04/01 15:01:59;;;;;;;13.03;10.80;;;;;;;16.48;84.63;97959.16;5127909;27;20241;-54
2023/04/01 15:05:01;;;;;;;14.67;9.10;;;;;;;16.38;88.34;97947.72;5128121;27;20272;-53
2023/04/01 15:08:02;;;;;;;6.90;5.77;;;;;;;16.20;92.75;97936.88;5130243;27;20688;-54
2023/04/01 15:11:02;;;;;;;8.33;5.13;;;;;;;16.07;95.34;97941.38;5129019;27;20194;-54
2023/04/01 15:14:25;;;;;;;6.90;6.10;;;;;;;15.80;98.40;97939.06;5129270;27;20427;-54
2023/04/01 15:17:55;;;;;;;8.30;6.53;;;;;;;15.59;100.00;97940.66;5129668;27;20194;-54
2023/04/01 15:20:52;;;;;;;7.80;6.53;;;;;;;15.64;100.00;97945.56;5129910;27;20634;-55
2023/04/01 15:23:48;;;;;;;9.00;6.60;;;;;;;15.46;100.00;97943.31;5118122;27;20233;-54
2023/04/01 15:29:49;;;;;;;6.67;5.93;;;;;;;15.48;100.00;97937.97;5126957;27;20550;-55
2023/04/01 15:32:42;;;;;;;8.60;5.60;;;;;;;15.52;100.00;97929.81;5129547;27;20233;-54
2023/04/01 15:35:35;;;;;;;6.13;4.97;;;;;;;15.49;99.31;97929.19;5129468;27;20191;-54
2023/04/01 15:38:30;;;;;;;6.60;5.40;;;;;;;15.52;97.81;97923.75;5128922;27;20668;-54
2023/04/01 15:41:15;;;;;;;9.53;6.20;;;;;;;15.57;96.77;97926.91;5129307;27;20577;-54
2023/04/01 15:43:53;;;;;;;5.70;5.20;;;;;;;15.40;97.69;97911.56;5125963;27;20229;-54
2023/04/01 15:46:44;;;;;;;6.13;5.50;;;;;;;15.40;99.18;97925.47;5128369;27;20300;-54
2023/04/01 15:49:43;;;;;;;5.80;5.30;;;;;;;15.40;98.92;97920.25;5131215;27;20204;-54
2023/04/01 15:52:48;;;;;;;7.93;5.20;;;;;;;15.43;98.39;97914.81;5127851;27;20639;-55
2023/04/01 15:55:47;;;;;;;6.63;5.07;;;;;;;15.36;98.35;97912.75;5124619;27;20620;-54
2023/04/01 15:58:48;;;;;;;6.87;6.17;;;;;;;15.42;98.27;97910.53;5128122;27;20202;-54
2023/04/01 16:01:43;;;;;;;14.33;7.33;;;;;;;15.49;96.57;97919.56;5128996;28;20221;-53
2023/04/01 16:04:44;;;;;;;11.60;7.73;;;;;;;15.45;95.83;97927.78;5127919;28;20234;-54
2023/04/01 16:07:55;;;;;;;11.80;9.43;;;;;;;15.42;95.95;97928.00;5116055;28;20221;-53
2023/04/01 16:11:20;;;;;;;22.03;14.47;;;;;;;15.42;95.94;97935.84;5108223;28;20981;-53
2023/04/01 16:13:57;;;;;;;17.90;12.83;;;;;;;15.45;95.80;97943.47;5107933;28;20624;-52
2023/04/01 16:16:46;;;;;;;8.50;7.73;;;;;;;15.45;95.48;97956.53;5108765;28;20650;-54
2023/04/01 16:19:46;;;;;;;9.87;7.20;;;;;;;15.49;95.19;97960.56;5126428;28;20234;-53
2023/04/01 16:22:38;;;;;;;8.60;5.43;;;;;;;15.47;95.64;97968.53;5115291;28;20235;-53
2023/04/01 16:25:37;;;;;;;6.27;5.57;;;;;;;15.35;96.55;97973.84;5129484;28;20200;-54
2023/04/01 16:28:31;;;;;;;7.17;6.47;;;;;;;15.33;95.53;97991.41;5127182;28;20618;-53
2023/04/01 16:31:35;;;;;;;7.63;6.57;;;;;;;15.31;95.85;97993.28;5126157;28;20198;-53
2023/04/01 16:34:16;;;;;;;9.47;8.00;;;;;;;15.24;97.10;98001.56;5129175;28;20217;-54
2023/04/01 16:36:53;;;;;;;6.43;5.83;;;;;;;15.17;96.21;97995.09;5128954;28;20193;-53
2023/04/01 16:39:40;;;;;;;7.00;6.07;;;;;;;15.17;96.00;97991.66;5128898;28;20205;-55
2023/04/01 16:42:28;;;;;;;9.40;6.97;;;;;;;15.15;95.10;98015.28;5117385;28;20717;-53
2023/04/01 16:45:20;;;;;;;8.53;6.90;;;;;;;15.09;93.66;98014.91;5116133;28;20732;-53